PWSweather.com
Personal Weather Stations
Station Observations
DW1039
Liberty & Fairfield Townships, Hamilton, OH 45011

Liberty & Fairfield TownshipsHamilton, OH 45011

Lat: 39.3933, Lon: -84.477

Elevation: 780

Station Type: Davis Vantage Pro2 (Daytime Fan Aspirated)

http://www.lfweathercenter.com/

Latest ConditionsUpdated 12:20:09 PM EDT Thursday, Mar 23, 2017
Currently Today's Max Today's Min Today's Average
Temperature 44.4°F6.9°C 44.4°F6.9°C 25.6°F-3.6°C 30.2°F-1.0°C
Dew Point 26.0°F-3.3°C 26.3°F-3.2°C 19.0°F-7.2°C 21.2°F-6.0°C
Winds 8.0 mph ESE12.9 kmh ESE 11.0 mph NE17.7 kmh NE - 3.3 mph 5.3 kmh
Wind Gusts 13.0 mph20.9 kmh 13.0 mph20.9 kmh - -
Humidity 48% 76% 47% 70%
Pressure 30.49 in1032.5 mb 30.54 in1034.2 mb 30.49 in1032.5 mb -
Hour Temp Dew Point Humidity Winds Wind Gusts Pressure Precip Precip Rate Daily Precip Total
12:20 PM 44.4°F6.9°C 26.0°F-3.3°C 48% 8.0 mph ESE12.9 kmh ESE 13.0 mph20.9 kmh 30.49 in1032.5 mb 0.00 in0.0 mm 0.00 in0.0 mm 0.00 in0.0 mm
12:10 PM 43.7°F6.5°C 26.3°F-3.2°C 50% 9.0 mph NE14.5 kmh NE 10.0 mph16.1 kmh 30.49 in1032.5 mb 0.00 in0.0 mm 0.00 in0.0 mm 0.00 in0.0 mm
12:00 PM 42.8°F6.0°C 24.0°F-4.4°C 47% 4.0 mph E6.4 kmh E 10.0 mph16.1 kmh 30.50 in1032.8 mb 0.00 in0.0 mm 0.00 in0.0 mm 0.00 in0.0 mm
11:50 AM 42.3°F5.7°C 25.0°F-3.9°C 50% 3.0 mph E4.8 kmh E 9.0 mph14.5 kmh 30.51 in1033.2 mb 0.00 in0.0 mm 0.00 in0.0 mm 0.00 in0.0 mm
11:40 AM 41.5°F5.3°C 24.3°F-4.3°C 50% 6.0 mph E9.7 kmh E 13.0 mph20.9 kmh 30.51 in1033.2 mb 0.00 in0.0 mm 0.00 in0.0 mm 0.00 in0.0 mm
11:30 AM 40.9°F4.9°C 24.7°F-4.1°C 52% 6.0 mph E9.7 kmh E 10.0 mph16.1 kmh 30.51 in1033.2 mb 0.00 in0.0 mm 0.00 in0.0 mm 0.00 in0.0 mm
11:20 AM 40.5°F4.7°C 22.9°F-5.1°C 49% 6.0 mph E9.7 kmh E 12.0 mph19.3 kmh 30.51 in1033.2 mb 0.00 in0.0 mm 0.00 in0.0 mm 0.00 in0.0 mm
11:10 AM 39.8°F4.3°C 24.1°F-4.4°C 53% 4.0 mph E6.4 kmh E 7.0 mph11.3 kmh 30.51 in1033.2 mb 0.00 in0.0 mm 0.00 in0.0 mm 0.00 in0.0 mm
11:00 AM 38.1°F3.4°C 22.1°F-5.5°C 52% 3.0 mph SE4.8 kmh SE 9.0 mph14.5 kmh 30.52 in1033.5 mb 0.00 in0.0 mm 0.00 in0.0 mm 0.00 in0.0 mm
10:50 AM 36.7°F2.6°C 20.8°F-6.2°C 52% 2.0 mph SE3.2 kmh SE 9.0 mph14.5 kmh 30.52 in1033.5 mb 0.00 in0.0 mm 0.00 in0.0 mm 0.00 in0.0 mm
10:40 AM 36.8°F2.7°C 22.2°F-5.4°C 55% 2.0 mph E3.2 kmh E 7.0 mph11.3 kmh 30.52 in1033.5 mb 0.00 in0.0 mm 0.00 in0.0 mm 0.00 in0.0 mm
10:30 AM 36.6°F2.6°C 22.4°F-5.3°C 56% 3.0 mph E4.8 kmh E 9.0 mph14.5 kmh 30.51 in1033.2 mb 0.00 in0.0 mm 0.00 in0.0 mm 0.00 in0.0 mm
10:20 AM 36.4°F2.4°C 22.2°F-5.4°C 56% 5.0 mph SE8.0 kmh SE 10.0 mph16.1 kmh 30.52 in1033.5 mb 0.00 in0.0 mm 0.00 in0.0 mm 0.00 in0.0 mm
10:10 AM 35.8°F2.1°C 22.1°F-5.5°C 57% 6.0 mph E9.7 kmh E 10.0 mph16.1 kmh 30.52 in1033.5 mb 0.00 in0.0 mm 0.00 in0.0 mm 0.00 in0.0 mm
10:00 AM 35.0°F1.7°C 22.1°F-5.5°C 59% 7.0 mph E11.3 kmh E 8.0 mph12.9 kmh 30.51 in1033.2 mb 0.00 in0.0 mm 0.00 in0.0 mm 0.00 in0.0 mm
09:50 AM 34.0°F1.1°C 22.0°F-5.6°C 61% 5.0 mph E8.0 kmh E 9.0 mph14.5 kmh 30.52 in1033.5 mb 0.00 in0.0 mm 0.00 in0.0 mm 0.00 in0.0 mm
09:40 AM 32.7°F0.4°C 21.5°F-5.8°C 63% 5.0 mph E8.0 kmh E 7.0 mph11.3 kmh 30.52 in1033.5 mb 0.00 in0.0 mm 0.00 in0.0 mm 0.00 in0.0 mm
09:30 AM 31.7°F-0.2°C 21.3°F-5.9°C 65% 3.0 mph ENE4.8 kmh ENE 10.0 mph16.1 kmh 30.51 in1033.2 mb 0.00 in0.0 mm 0.00 in0.0 mm 0.00 in0.0 mm
09:20 AM 30.6°F-0.8°C 21.3°F-5.9°C 68% 4.0 mph E6.4 kmh E 6.0 mph9.7 kmh 30.51 in1033.2 mb 0.00 in0.0 mm 0.00 in0.0 mm 0.00 in0.0 mm
09:10 AM 29.8°F-1.2°C 21.2°F-6.0°C 70% 3.0 mph ESE4.8 kmh ESE 7.0 mph11.3 kmh 30.51 in1033.2 mb 0.00 in0.0 mm 0.00 in0.0 mm 0.00 in0.0 mm
09:00 AM 29.1°F-1.6°C 21.2°F-6.0°C 72% 3.0 mph ENE4.8 kmh ENE 8.0 mph12.9 kmh 30.51 in1033.2 mb 0.00 in0.0 mm 0.00 in0.0 mm 0.00 in0.0 mm
08:50 AM 28.5°F-1.9°C 21.0°F-6.1°C 73% 4.0 mph E6.4 kmh E 7.0 mph11.3 kmh 30.51 in1033.2 mb 0.00 in0.0 mm 0.00 in0.0 mm 0.00 in0.0 mm
08:40 AM 27.8°F-2.3°C 20.6°F-6.3°C 74% 3.0 mph E4.8 kmh E 5.0 mph8.0 kmh 30.52 in1033.5 mb 0.00 in0.0 mm 0.00 in0.0 mm 0.00 in0.0 mm
08:30 AM 27.0°F-2.8°C 20.2°F-6.6°C 75% Calm Calm 5.0 mph8.0 kmh 30.52 in1033.5 mb 0.00 in0.0 mm 0.00 in0.0 mm 0.00 in0.0 mm
08:20 AM 26.3°F-3.2°C 19.8°F-6.8°C 76% 2.0 mph ENE3.2 kmh ENE 3.0 mph4.8 kmh 30.53 in1033.9 mb 0.00 in0.0 mm 0.00 in0.0 mm 0.00 in0.0 mm
08:10 AM 26.0°F-3.3°C 19.5°F-6.9°C 76% Calm Calm 3.0 mph4.8 kmh 30.53 in1033.9 mb 0.00 in0.0 mm 0.00 in0.0 mm 0.00 in0.0 mm
08:00 AM 25.6°F-3.6°C 19.1°F-7.2°C 76% Calm Calm -- 30.52 in1033.5 mb 0.00 in0.0 mm 0.00 in0.0 mm 0.00 in0.0 mm
07:50 AM 25.6°F-3.6°C 19.1°F-7.2°C 76% Calm Calm 4.0 mph6.4 kmh 30.50 in1032.8 mb 0.00 in0.0 mm 0.00 in0.0 mm 0.00 in0.0 mm
07:40 AM 25.6°F-3.6°C 19.1°F-7.2°C 76% Calm Calm 3.0 mph4.8 kmh 30.50 in1032.8 mb 0.00 in0.0 mm 0.00 in0.0 mm 0.00 in0.0 mm
07:30 AM 25.8°F-3.4°C 19.3°F-7.1°C 76% Calm Calm 3.0 mph4.8 kmh 30.50 in1032.8 mb 0.00 in0.0 mm 0.00 in0.0 mm 0.00 in0.0 mm
07:20 AM 25.8°F-3.4°C 19.0°F-7.2°C 75% 1.0 mph ENE1.6 kmh ENE 3.0 mph4.8 kmh 30.50 in1032.8 mb 0.00 in0.0 mm 0.00 in0.0 mm 0.00 in0.0 mm
07:10 AM 26.0°F-3.3°C 19.2°F-7.1°C 75% Calm Calm 4.0 mph6.4 kmh 30.50 in1032.8 mb 0.00 in0.0 mm 0.00 in0.0 mm 0.00 in0.0 mm
07:00 AM 26.1°F-3.3°C 19.3°F-7.1°C 75% Calm Calm 3.0 mph4.8 kmh 30.51 in1033.2 mb 0.00 in0.0 mm 0.00 in0.0 mm 0.00 in0.0 mm
06:50 AM 26.2°F-3.2°C 19.4°F-7.0°C 75% Calm Calm 5.0 mph8.0 kmh 30.51 in1033.2 mb 0.00 in0.0 mm 0.00 in0.0 mm 0.00 in0.0 mm
06:40 AM 26.3°F-3.2°C 19.5°F-6.9°C 75% Calm Calm 7.0 mph11.3 kmh 30.51 in1033.2 mb 0.00 in0.0 mm 0.00 in0.0 mm 0.00 in0.0 mm
06:30 AM 26.5°F-3.1°C 19.7°F-6.8°C 75% Calm Calm 5.0 mph8.0 kmh 30.50 in1032.8 mb 0.00 in0.0 mm 0.00 in0.0 mm 0.00 in0.0 mm
06:20 AM 26.5°F-3.1°C 19.7°F-6.8°C 75% 5.0 mph ENE8.0 kmh ENE 7.0 mph11.3 kmh 30.50 in1032.8 mb 0.00 in0.0 mm 0.00 in0.0 mm 0.00 in0.0 mm
06:10 AM 26.6°F-3.0°C 20.1°F-6.6°C 76% Calm Calm 7.0 mph11.3 kmh 30.50 in1032.8 mb 0.00 in0.0 mm 0.00 in0.0 mm 0.00 in0.0 mm
06:00 AM 26.5°F-3.1°C 20.0°F-6.7°C 76% 3.0 mph ENE4.8 kmh ENE 12.0 mph19.3 kmh 30.50 in1032.8 mb 0.00 in0.0 mm 0.00 in0.0 mm 0.00 in0.0 mm
05:50 AM 26.6°F-3.0°C 20.1°F-6.6°C 76% 4.0 mph ENE6.4 kmh ENE 11.0 mph17.7 kmh 30.49 in1032.5 mb 0.00 in0.0 mm 0.00 in0.0 mm 0.00 in0.0 mm
05:40 AM 26.7°F-2.9°C 20.2°F-6.6°C 76% Calm Calm 9.0 mph14.5 kmh 30.50 in1032.8 mb 0.00 in0.0 mm 0.00 in0.0 mm 0.00 in0.0 mm
05:30 AM 26.7°F-2.9°C 20.2°F-6.6°C 76% 4.0 mph ENE6.4 kmh ENE 8.0 mph12.9 kmh 30.50 in1032.8 mb 0.00 in0.0 mm 0.00 in0.0 mm 0.00 in0.0 mm
05:20 AM 26.7°F-2.9°C 20.2°F-6.6°C 76% 4.0 mph NE6.4 kmh NE 7.0 mph11.3 kmh 30.50 in1032.8 mb 0.00 in0.0 mm 0.00 in0.0 mm 0.00 in0.0 mm
05:10 AM 26.9°F-2.8°C 20.4°F-6.4°C 76% 2.0 mph ENE3.2 kmh ENE 8.0 mph12.9 kmh 30.50 in1032.8 mb 0.00 in0.0 mm 0.00 in0.0 mm 0.00 in0.0 mm
05:00 AM 27.0°F-2.8°C 20.5°F-6.4°C 76% 2.0 mph ENE3.2 kmh ENE 10.0 mph16.1 kmh 30.51 in1033.2 mb 0.00 in0.0 mm 0.00 in0.0 mm 0.00 in0.0 mm
04:50 AM 27.0°F-2.8°C 20.5°F-6.4°C 76% 4.0 mph NE6.4 kmh NE 9.0 mph14.5 kmh 30.51 in1033.2 mb 0.00 in0.0 mm 0.00 in0.0 mm 0.00 in0.0 mm
04:40 AM 27.2°F-2.7°C 20.7°F-6.3°C 76% 3.0 mph NE4.8 kmh NE 6.0 mph9.7 kmh 30.51 in1033.2 mb 0.00 in0.0 mm 0.00 in0.0 mm 0.00 in0.0 mm
04:30 AM 27.2°F-2.7°C 20.7°F-6.3°C 76% 2.0 mph NE3.2 kmh NE 10.0 mph16.1 kmh 30.51 in1033.2 mb 0.00 in0.0 mm 0.00 in0.0 mm 0.00 in0.0 mm
04:20 AM 27.4°F-2.6°C 20.8°F-6.2°C 76% Calm Calm 10.0 mph16.1 kmh 30.50 in1032.8 mb 0.00 in0.0 mm 0.00 in0.0 mm 0.00 in0.0 mm
04:10 AM 27.5°F-2.5°C 20.9°F-6.2°C 76% 3.0 mph ENE4.8 kmh ENE 10.0 mph16.1 kmh 30.51 in1033.2 mb 0.00 in0.0 mm 0.00 in0.0 mm 0.00 in0.0 mm
04:00 AM 27.4°F-2.6°C 20.8°F-6.2°C 76% 3.0 mph NE4.8 kmh NE 9.0 mph14.5 kmh 30.51 in1033.2 mb 0.00 in0.0 mm 0.00 in0.0 mm 0.00 in0.0 mm
03:50 AM 27.4°F-2.6°C 20.8°F-6.2°C 76% Calm Calm 11.0 mph17.7 kmh 30.50 in1032.8 mb 0.00 in0.0 mm 0.00 in0.0 mm 0.00 in0.0 mm
03:40 AM 27.4°F-2.6°C 20.8°F-6.2°C 76% 6.0 mph E9.7 kmh E 10.0 mph16.1 kmh 30.51 in1033.2 mb 0.00 in0.0 mm 0.00 in0.0 mm 0.00 in0.0 mm
03:30 AM 27.4°F-2.6°C 20.8°F-6.2°C 76% 4.0 mph ENE6.4 kmh ENE 7.0 mph11.3 kmh 30.51 in1033.2 mb 0.00 in0.0 mm 0.00 in0.0 mm 0.00 in0.0 mm
03:20 AM 27.5°F-2.5°C 20.9°F-6.2°C 76% 7.0 mph NE11.3 kmh NE 8.0 mph12.9 kmh 30.51 in1033.2 mb 0.00 in0.0 mm 0.00 in0.0 mm 0.00 in0.0 mm
03:10 AM 27.6°F-2.4°C 21.0°F-6.1°C 76% Calm Calm 6.0 mph9.7 kmh 30.51 in1033.2 mb 0.00 in0.0 mm 0.00 in0.0 mm 0.00 in0.0 mm
03:00 AM 27.6°F-2.4°C 21.0°F-6.1°C 76% 1.0 mph NE1.6 kmh NE 10.0 mph16.1 kmh 30.51 in1033.2 mb 0.00 in0.0 mm 0.00 in0.0 mm 0.00 in0.0 mm
02:50 AM 27.6°F-2.4°C 21.0°F-6.1°C 76% 5.0 mph ENE8.0 kmh ENE 9.0 mph14.5 kmh 30.52 in1033.5 mb 0.00 in0.0 mm 0.00 in0.0 mm 0.00 in0.0 mm
02:40 AM 27.7°F-2.4°C 21.1°F-6.1°C 76% 2.0 mph ENE3.2 kmh ENE 7.0 mph11.3 kmh 30.51 in1033.2 mb 0.00 in0.0 mm 0.00 in0.0 mm 0.00 in0.0 mm
02:30 AM 27.8°F-2.3°C 21.2°F-6.0°C 76% 5.0 mph ENE8.0 kmh ENE 7.0 mph11.3 kmh 30.52 in1033.5 mb 0.00 in0.0 mm 0.00 in0.0 mm 0.00 in0.0 mm
02:20 AM 28.0°F-2.2°C 21.1°F-6.1°C 75% Calm Calm 7.0 mph11.3 kmh 30.52 in1033.5 mb 0.00 in0.0 mm 0.00 in0.0 mm 0.00 in0.0 mm
02:10 AM 28.1°F-2.2°C 21.2°F-6.0°C 75% 4.0 mph ENE6.4 kmh ENE 8.0 mph12.9 kmh 30.52 in1033.5 mb 0.00 in0.0 mm 0.00 in0.0 mm 0.00 in0.0 mm
02:00 AM 28.3°F-2.1°C 21.1°F-6.1°C 74% 4.0 mph ENE6.4 kmh ENE 6.0 mph9.7 kmh 30.52 in1033.5 mb 0.00 in0.0 mm 0.00 in0.0 mm 0.00 in0.0 mm
01:50 AM 28.5°F-1.9°C 21.3°F-5.9°C 74% 1.0 mph ENE1.6 kmh ENE 6.0 mph9.7 kmh 30.52 in1033.5 mb 0.00 in0.0 mm 0.00 in0.0 mm 0.00 in0.0 mm
01:40 AM 28.7°F-1.8°C 21.5°F-5.8°C 74% 3.0 mph ENE4.8 kmh ENE 7.0 mph11.3 kmh 30.53 in1033.9 mb 0.00 in0.0 mm 0.00 in0.0 mm 0.00 in0.0 mm
01:30 AM 29.0°F-1.7°C 21.4°F-5.9°C 73% 4.0 mph NE6.4 kmh NE 6.0 mph9.7 kmh 30.53 in1033.9 mb 0.00 in0.0 mm 0.00 in0.0 mm 0.00 in0.0 mm
01:20 AM 29.1°F-1.6°C 21.5°F-5.8°C 73% 7.0 mph NE11.3 kmh NE 10.0 mph16.1 kmh 30.53 in1033.9 mb 0.00 in0.0 mm 0.00 in0.0 mm 0.00 in0.0 mm
01:10 AM 29.3°F-1.5°C 21.4°F-5.9°C 72% 3.0 mph NE4.8 kmh NE 10.0 mph16.1 kmh 30.53 in1033.9 mb 0.00 in0.0 mm 0.00 in0.0 mm 0.00 in0.0 mm
01:00 AM 29.6°F-1.3°C 21.7°F-5.7°C 72% 4.0 mph NE6.4 kmh NE 11.0 mph17.7 kmh 30.53 in1033.9 mb 0.00 in0.0 mm 0.00 in0.0 mm 0.00 in0.0 mm
12:50 AM 29.7°F-1.3°C 21.5°F-5.8°C 71% 5.0 mph NE8.0 kmh NE 10.0 mph16.1 kmh 30.53 in1033.9 mb 0.00 in0.0 mm 0.00 in0.0 mm 0.00 in0.0 mm
12:40 AM 29.9°F-1.2°C 21.7°F-5.7°C 71% 11.0 mph NE17.7 kmh NE 12.0 mph19.3 kmh 30.53 in1033.9 mb 0.00 in0.0 mm 0.00 in0.0 mm 0.00 in0.0 mm
12:30 AM 29.9°F-1.2°C 21.7°F-5.7°C 71% 2.0 mph NE3.2 kmh NE 10.0 mph16.1 kmh 30.53 in1033.9 mb 0.00 in0.0 mm 0.00 in0.0 mm 0.00 in0.0 mm
12:20 AM 30.0°F-1.1°C 21.4°F-5.9°C 70% 9.0 mph ENE14.5 kmh ENE 12.0 mph19.3 kmh 30.52 in1033.5 mb 0.00 in0.0 mm 0.00 in0.0 mm 0.00 in0.0 mm
12:10 AM 30.1°F-1.1°C 21.5°F-5.8°C 70% 9.0 mph NE14.5 kmh NE 9.0 mph14.5 kmh 30.53 in1033.9 mb 0.00 in0.0 mm 0.00 in0.0 mm 0.00 in0.0 mm
12:00 AM 30.3°F-0.9°C 21.4°F-5.9°C 69% 6.0 mph ENE9.7 kmh ENE 9.0 mph14.5 kmh 30.54 in1034.2 mb 0.00 in0.0 mm 0.00 in0.0 mm 0.00 in0.0 mm